Time;durP1;ratioP1;P1;durP2;ratioP2;P2;SDS_P1;SDS_P2;PMS_P1;PMS_P2;Temp;Humidity;BMP_temperature;BMP_pressure;BME280_temperature;BME280_humidity;BME280_pressure;Samples;Min_cycle;Max_cycle;Signal;HPM_P1;HPM_P2
2021/11/10 01:03:22;;;;;;;;;;;;;;;;;;;;;
2021/11/10 01:06:28;;;;;;;;;;;;;;;;;;;;;
2021/11/10 01:08:59;;;;;;;;;;;;;;;;;;;;;
2021/11/10 01:14:20;;;;;;;;;;;6.00;99.90;;;;;;4897121;29;20337;-96
2021/11/10 01:17:28;;;;;;;;;;;;;;;;;;;;;
2021/11/10 01:20:04;;;;;;;;;;;5.90;99.90;;;;;;4893589;29;19919;-93
2021/11/10 01:28:28;;;;;;;;;;;;;;;;;;;;;
2021/11/10 01:41:02;;;;;;;;;;;;;;;;;;;;;
2021/11/10 01:47:18;;;;;;;;;;;5.90;99.90;;;;;;4770193;29;20432;-94
2021/11/10 01:53:15;;;;;;;;;;;5.90;99.90;;;;;;4761544;29;19922;-94
2021/11/10 02:01:46;;;;;;;;;;;5.90;99.90;;;;;;4798914;29;19936;-94
2021/11/10 02:04:34;;;;;;;;;;;5.90;99.90;;;;;;4856086;29;19947;-94
2021/11/10 02:10:03;;;;;;;;;;;5.90;99.90;;;;;;4859979;29;19977;-93
2021/11/10 02:12:29;;;;;;;;;;;5.90;99.90;;;;;;4859999;29;19912;-94
2021/11/10 02:15:15;;;;;;;;;;;5.90;99.90;;;;;;4862653;29;20449;-94
2021/11/10 02:20:49;;;;;;;;;;;5.90;99.90;;;;;;4899603;29;20147;-93
2021/11/10 02:23:24;;;;;;;;;;;5.90;99.90;;;;;;4878119;29;19912;-93
2021/11/10 02:25:56;;;;;;;;;;;6.00;99.90;;;;;;4882413;29;19912;-93
2021/11/10 02:28:24;;;;;;;;;;;5.90;99.90;;;;;;4882412;29;19915;-94
2021/11/10 02:30:58;;;;;;;;;;;5.90;99.90;;;;;;4884177;29;19915;-93
2021/11/10 02:33:34;;;;;;;;;;;5.90;99.90;;;;;;4883806;29;19930;-94
2021/11/10 02:36:05;;;;;;;;;;;5.90;99.90;;;;;;4883649;29;19912;-93
2021/11/10 02:38:34;;;;;;;;;;;5.90;99.90;;;;;;4883215;29;19911;-93
2021/11/10 02:41:10;;;;;;;;;;;;;;;;;;;;;
2021/11/10 02:43:40;;;;;;;;;;;5.80;99.90;;;;;;4900041;29;19912;-93
2021/11/10 02:46:05;;;;;;;;;;;5.80;99.90;;;;;;4883166;29;19912;-93
2021/11/10 02:48:38;;;;;;;;;;;5.80;99.90;;;;;;4882813;29;19918;-93
2021/11/10 02:51:35;;;;;;;;;;;5.80;99.90;;;;;;4882797;29;19950;-93
2021/11/10 02:54:12;;;;;;;;;;;5.80;99.90;;;;;;4882923;29;19912;-91
2021/11/10 02:57:09;;;;;;;;;;;;;;;;;;;;;
2021/11/10 02:59:33;;;;;;;;;;;5.70;99.90;;;;;;4894840;29;19939;-93
2021/11/10 03:05:15;;;;;;;;;;;5.60;99.90;;;;;;4863464;29;19918;-94
2021/11/10 03:08:00;;;;;;;;;;;;;;;;;;;;;
2021/11/10 03:10:38;;;;;;;;;;;;;;;;;;;;;
2021/11/10 03:13:27;;;;;;;;;;;5.50;99.90;;;;;;4895967;29;19916;-94
2021/11/10 03:18:47;;;;;;;;;;;5.50;99.90;;;;;;4898453;29;19912;-94
2021/11/10 03:21:15;;;;;;;;;;;5.50;99.90;;;;;;4881716;29;19922;-93
2021/11/10 03:23:41;;;;;;;;;;;5.40;99.90;;;;;;4881800;29;19915;-93
2021/11/10 03:26:14;;;;;;;;;;;5.50;99.90;;;;;;4881569;29;20315;-93
2021/11/10 03:28:42;;;;;;;;;;;5.40;99.90;;;;;;4881730;29;19920;-93
2021/11/10 03:31:10;;;;;;;;;;;5.40;99.90;;;;;;4881834;29;19988;-93
2021/11/10 03:33:38;;;;;;;;;;;5.50;99.90;;;;;;4881579;29;19947;-93
2021/11/10 03:36:06;;;;;;;;;;;5.50;99.90;;;;;;4881862;29;19915;-93
2021/11/10 03:38:32;;;;;;;;;;;5.50;99.90;;;;;;4881740;29;19995;-94
2021/11/10 03:40:58;;;;;;;;;;;5.50;99.90;;;;;;4881582;29;19987;-94
2021/11/10 03:43:23;;;;;;;;;;;5.50;99.90;;;;;;4881357;29;19931;-93
2021/11/10 03:45:55;;;;;;;;;;;5.50;99.90;;;;;;4881791;29;19919;-93
2021/11/10 03:48:23;;;;;;;;;;;5.50;99.90;;;;;;4875612;29;19911;-93
2021/11/10 03:50:49;;;;;;;;;;;5.60;99.90;;;;;;4882194;29;20582;-93
2021/11/10 03:53:14;;;;;;;;;;;5.60;99.90;;;;;;4882527;29;20197;-93
2021/11/10 03:55:42;;;;;;;;;;;5.60;99.90;;;;;;4887164;29;19978;-94
2021/11/10 03:58:20;;;;;;;;;;;5.60;99.90;;;;;;4887445;29;19911;-94
2021/11/10 04:00:56;;;;;;;;;;;;;;;;;;;;;
2021/11/10 04:03:31;;;;;;;;;;;5.70;99.90;;;;;;4907991;29;20003;-94
2021/11/10 04:06:09;;;;;;;;;;;5.70;99.90;;;;;;4901338;29;20064;-93
2021/11/10 04:08:46;;;;;;;;;;;5.70;99.90;;;;;;4904947;29;19960;-94
2021/11/10 04:11:26;;;;;;;;;;;5.70;99.90;;;;;;4904930;29;19967;-94
2021/11/10 04:14:12;;;;;;;;;;;5.60;99.90;;;;;;4904197;29;19970;-95
2021/11/10 04:16:47;;;;;;;;;;;5.60;99.90;;;;;;4877989;29;19915;-93
2021/11/10 04:25:00;;;;;;;;;;;5.50;99.90;;;;;;4884124;29;19967;-93
2021/11/10 04:30:29;;;;;;;;;;;5.40;99.90;;;;;;4893718;29;19971;-93
2021/11/10 04:33:02;;;;;;;;;;;5.40;99.90;;;;;;4892879;29;19916;-94
2021/11/10 04:35:31;;;;;;;;;;;5.40;99.90;;;;;;4881092;29;20054;-94
2021/11/10 04:37:57;;;;;;;;;;;5.40;99.90;;;;;;4881387;29;19912;-94
2021/11/10 04:40:22;;;;;;;;;;;5.40;99.90;;;;;;4881012;29;19923;-94
2021/11/10 04:42:53;;;;;;;;;;;5.40;99.90;;;;;;4881478;29;19912;-92
2021/11/10 04:45:31;;;;;;;;;;;5.40;99.90;;;;;;4880730;29;19924;-93
2021/11/10 04:47:57;;;;;;;;;;;5.30;99.90;;;;;;4879312;29;19912;-94
2021/11/10 04:50:23;;;;;;;;;;;5.40;99.90;;;;;;4878984;29;20341;-93
2021/11/10 04:52:48;;;;;;;;;;;5.40;99.90;;;;;;4879047;29;20003;-93
2021/11/10 04:55:17;;;;;;;;;;;5.40;99.90;;;;;;4879239;29;20296;-94
2021/11/10 04:57:43;;;;;;;;;;;5.40;99.90;;;;;;4879129;29;19990;-94
2021/11/10 05:00:10;;;;;;;;;;;5.40;99.90;;;;;;4879417;29;19959;-95
2021/11/10 05:02:39;;;;;;;;;;;5.40;99.90;;;;;;4880575;29;20304;-93
2021/11/10 05:05:07;;;;;;;;;;;5.40;99.90;;;;;;4880977;29;20003;-92
2021/11/10 05:07:33;;;;;;;;;;;5.30;99.90;;;;;;4880790;29;19916;-93
2021/11/10 05:09:59;;;;;;;;;;;5.30;99.90;;;;;;4879734;29;20157;-93
2021/11/10 05:12:29;;;;;;;;;;;5.30;99.90;;;;;;4880604;29;20513;-93
2021/11/10 05:14:58;;;;;;;;;;;5.30;99.90;;;;;;4880865;29;19998;-93
2021/11/10 05:17:29;;;;;;;;;;;5.30;99.90;;;;;;4880690;29;19987;-94
2021/11/10 05:19:59;;;;;;;;;;;5.20;99.90;;;;;;4881245;29;20332;-94
2021/11/10 05:22:27;;;;;;;;;;;5.10;99.90;;;;;;4880875;29;19915;-94
2021/11/10 05:24:55;;;;;;;;;;;5.10;99.90;;;;;;4880674;29;19959;-92
2021/11/10 05:27:26;;;;;;;;;;;5.10;99.90;;;;;;4880551;29;19912;-93
2021/11/10 05:29:54;;;;;;;;;;;5.10;99.90;;;;;;4880007;29;19965;-93
2021/11/10 05:32:23;;;;;;;;;;;5.00;99.90;;;;;;4879717;29;20018;-94
2021/11/10 05:34:58;;;;;;;;;;;5.00;99.90;;;;;;4879957;29;19919;-93
2021/11/10 05:37:27;;;;;;;;;;;5.10;99.90;;;;;;4879983;29;19915;-94
2021/11/10 05:39:56;;;;;;;;;;;5.00;99.90;;;;;;4879968;29;19916;-93
2021/11/10 05:42:21;;;;;;;;;;;5.00;99.90;;;;;;4879545;29;19919;-93
2021/11/10 05:44:47;;;;;;;;;;;5.00;99.90;;;;;;4879724;29;19912;-93
2021/11/10 05:47:16;;;;;;;;;;;5.00;99.90;;;;;;4879220;29;20376;-94
2021/11/10 05:49:44;;;;;;;;;;;5.00;99.90;;;;;;4879625;29;19923;-93
2021/11/10 05:52:10;;;;;;;;;;;5.00;99.90;;;;;;4879513;29;19911;-93
2021/11/10 05:54:38;;;;;;;;;;;4.90;99.90;;;;;;4879879;29;19918;-94
2021/11/10 05:57:03;;;;;;;;;;;4.90;99.90;;;;;;4880194;29;19915;-92
2021/11/10 06:03:22;;;;;;;;;;;4.90;99.90;;;;;;4838621;29;20306;-94
2021/11/10 06:05:54;;;;;;;;;;;4.90;99.90;;;;;;4836775;29;19954;-95
2021/11/10 06:08:49;;;;;;;;;;;4.90;99.90;;;;;;4868446;29;19924;-95
2021/11/10 06:11:35;;;;;;;;;;;4.80;99.90;;;;;;4898325;29;20089;-94
2021/11/10 06:17:13;;;;;;;;;;;4.90;99.90;;;;;;4899333;29;19908;-94
2021/11/10 06:19:39;;;;;;;;;;;4.80;99.90;;;;;;4901198;29;19911;-94
2021/11/10 06:22:04;;;;;;;;;;;4.80;99.90;;;;;;4898743;29;20001;-93
2021/11/10 06:24:30;;;;;;;;;;;4.80;99.90;;;;;;4892227;29;19932;-94
2021/11/10 06:26:58;;;;;;;;;;;4.80;99.90;;;;;;4892610;29;19942;-93
2021/11/10 06:29:24;;;;;;;;;;;4.90;99.90;;;;;;4904134;29;20085;-94
2021/11/10 06:31:50;;;;;;;;;;;4.90;99.90;;;;;;4892617;29;20267;-94
2021/11/10 06:34:16;;;;;;;;;;;4.90;99.90;;;;;;4891860;29;19913;-94
2021/11/10 06:36:42;;;;;;;;;;;4.80;99.90;;;;;;4892579;29;19918;-92
2021/11/10 06:39:08;;;;;;;;;;;4.80;99.90;;;;;;4891934;29;19916;-93
2021/11/10 06:41:33;;;;;;;;;;;4.80;99.90;;;;;;4891542;29;20191;-93
2021/11/10 06:43:59;;;;;;;;;;;4.70;99.90;;;;;;4892096;29;19907;-94
2021/11/10 06:46:25;;;;;;;;;;;4.70;99.90;;;;;;4909590;29;19978;-94
2021/11/10 06:48:50;;;;;;;;;;;4.60;99.90;;;;;;4893028;29;20038;-94
2021/11/10 06:51:16;;;;;;;;;;;4.70;99.90;;;;;;4892498;29;20184;-94
2021/11/10 06:56:45;;;;;;;;;;;4.60;99.90;;;;;;4982060;23;19938;-91
2021/11/10 11:48:43;;;;;;;;;;;11.60;99.90;;;;;;5058474;23;19922;-90
2021/11/10 18:41:34;;;;;;;;;;;9.70;99.90;;;;;;5133157;23;20010;-93
2021/11/10 18:44:00;;;;;;;;;;;9.60;99.90;;;;;;4951275;28;19963;-94
2021/11/10 18:46:26;;;;;;;;;;;9.60;99.90;;;;;;4950106;28;20462;-93
2021/11/10 18:48:55;;;;;;;;;;;9.60;99.90;;;;;;4953591;28;19922;-95
2021/11/10 18:51:20;;;;;;;;;;;9.60;99.90;;;;;;4949166;28;19910;-94
2021/11/10 18:53:46;;;;;;;;;;;9.50;99.90;;;;;;4937458;29;19911;-94
2021/11/10 18:56:15;;;;;;;;;;;9.50;99.90;;;;;;4958251;28;20087;-94
2021/11/10 18:58:41;;;;;;;;;;;9.50;99.90;;;;;;4953131;28;19926;-93
2021/11/10 19:35:35;;;;;;;;;;;9.20;99.90;;;;;;4824342;29;19920;-94
2021/11/10 19:58:39;;;;;;;;;;;8.70;99.90;;;;;;5130671;27;19911;-93
